createdAt,value
2023-02-27T00:00:19.627Z,99.90
2023-02-27T00:02:51.507Z,99.90
2023-02-27T00:10:14.717Z,99.90
2023-02-27T00:12:42.176Z,99.90
2023-02-27T00:15:14.304Z,99.90
2023-02-27T00:17:41.174Z,99.90
2023-02-27T00:20:11.620Z,99.90
2023-02-27T00:22:39.766Z,99.90
2023-02-27T00:25:07.830Z,99.90
2023-02-27T00:37:24.614Z,99.90
2023-02-27T00:39:51.489Z,99.90
2023-02-27T00:44:45.732Z,99.90
2023-02-27T00:47:12.547Z,99.90
2023-02-27T00:49:39.379Z,99.90
2023-02-27T00:57:00.707Z,99.90
2023-02-27T01:04:22.139Z,99.90
2023-02-27T01:06:49.015Z,99.90
2023-02-27T01:11:43.176Z,99.90
2023-02-27T01:19:05.019Z,99.90
2023-02-27T01:21:31.862Z,99.90
2023-02-27T01:38:43.483Z,99.90
2023-02-27T01:41:10.489Z,99.90
2023-02-27T01:43:56.122Z,99.90
2023-02-27T01:46:23.837Z,99.90
2023-02-27T01:48:55.715Z,99.90
2023-02-27T01:53:52.430Z,97.30
2023-02-27T01:56:27.297Z,99.90
2023-02-27T01:58:58.077Z,99.90
2023-02-27T02:01:25.658Z,97.10
2023-02-27T02:03:58.371Z,99.90
2023-02-27T02:08:54.793Z,99.90
2023-02-27T02:11:23.487Z,97.30
2023-02-27T02:16:52.321Z,96.70
2023-02-27T02:19:50.999Z,96.40
2023-02-27T02:22:58.059Z,96.70
2023-02-27T02:25:46.570Z,97.20
2023-02-27T02:28:43.912Z,97.30
2023-02-27T02:31:16.771Z,99.90
2023-02-27T02:33:52.970Z,97.70
2023-02-27T02:36:28.785Z,97.90
2023-02-27T02:39:04.920Z,99.90
2023-02-27T02:42:00.558Z,99.90
2023-02-27T02:45:09.790Z,99.90
2023-02-27T02:47:54.211Z,98.40
2023-02-27T02:50:46.701Z,98.20
2023-02-27T02:53:36.145Z,99.90
2023-02-27T02:56:17.474Z,98.40
2023-02-27T03:01:30.994Z,98.00
2023-02-27T03:04:07.443Z,98.40
2023-02-27T03:06:44.000Z,99.90
2023-02-27T03:09:19.376Z,98.10
2023-02-27T03:11:49.609Z,99.90
2023-02-27T03:14:30.672Z,99.90
2023-02-27T03:17:00.442Z,99.90
2023-02-27T03:19:37.874Z,96.60
2023-02-27T03:22:12.323Z,96.30
2023-02-27T03:27:08.623Z,96.30
2023-02-27T03:29:52.935Z,99.90
2023-02-27T03:32:45.897Z,99.90
2023-02-27T03:35:13.220Z,96.90
2023-02-27T03:38:05.080Z,95.70
2023-02-27T03:40:38.009Z,96.10
2023-02-27T03:43:17.998Z,99.90
2023-02-27T03:45:58.675Z,96.20
2023-02-27T03:48:25.964Z,99.90
2023-02-27T03:53:43.045Z,95.80
2023-02-27T03:56:13.577Z,99.90
2023-02-27T03:58:41.132Z,95.40
2023-02-27T04:03:41.508Z,94.40
2023-02-27T04:06:27.232Z,99.90
2023-02-27T04:09:08.917Z,99.50
2023-02-27T04:11:46.236Z,99.40
2023-02-27T04:14:38.488Z,95.70
2023-02-27T04:19:46.320Z,99.90
2023-02-27T04:22:25.226Z,99.70
2023-02-27T04:25:13.929Z,96.70
2023-02-27T04:27:45.267Z,97.30
2023-02-27T04:30:38.131Z,99.50
2023-02-27T04:33:13.736Z,94.50
2023-02-27T04:36:13.167Z,95.30
2023-02-27T04:38:56.473Z,99.50
2023-02-27T04:41:25.345Z,95.90
2023-02-27T04:43:53.629Z,95.70
2023-02-27T04:46:25.831Z,96.20
2023-02-27T04:49:15.423Z,99.90
2023-02-27T04:51:52.382Z,96.50
2023-02-27T04:54:29.963Z,96.30
2023-02-27T04:57:02.343Z,95.80
2023-02-27T04:59:34.078Z,98.70
2023-02-27T05:02:07.981Z,96.10
2023-02-27T05:04:38.161Z,99.90
2023-02-27T05:07:09.538Z,96.10
2023-02-27T05:09:56.490Z,95.60
2023-02-27T05:12:26.700Z,99.70
2023-02-27T05:15:30.076Z,99.20
2023-02-27T05:18:09.402Z,96.40
2023-02-27T05:20:51.597Z,99.90
2023-02-27T05:24:02.683Z,99.90
2023-02-27T05:26:44.193Z,99.90
2023-02-27T05:29:16.225Z,96.00
2023-02-27T05:31:50.627Z,96.60
2023-02-27T05:34:20.655Z,99.90
2023-02-27T05:37:00.272Z,99.90
2023-02-27T05:39:30.252Z,99.90
2023-02-27T05:42:05.584Z,98.40
2023-02-27T05:44:39.604Z,97.80
2023-02-27T05:47:12.984Z,97.70
2023-02-27T05:49:55.411Z,99.90
2023-02-27T05:52:26.476Z,98.00
2023-02-27T05:55:18.932Z,97.60
2023-02-27T05:57:51.341Z,97.50
2023-02-27T06:00:30.091Z,99.90
2023-02-27T06:02:57.001Z,98.30
2023-02-27T06:05:25.988Z,97.80
2023-02-27T06:10:22.277Z,97.60
2023-02-27T06:12:49.146Z,99.60
2023-02-27T06:15:17.719Z,97.30
2023-02-27T06:17:44.703Z,99.90
2023-02-27T06:22:39.142Z,99.90
2023-02-27T06:25:06.451Z,98.10
2023-02-27T06:30:00.898Z,99.60
2023-02-27T06:37:22.358Z,99.10
2023-02-27T06:42:16.890Z,99.90
2023-02-27T07:01:55.678Z,97.80
2023-02-27T07:07:34.079Z,99.40
2023-02-27T07:12:05.069Z,93.40
2023-02-27T07:19:32.372Z,94.30
2023-02-27T07:21:59.667Z,93.90
2023-02-27T07:31:49.049Z,91.80
2023-02-27T07:36:43.593Z,87.60
2023-02-27T07:39:12.225Z,82.00
2023-02-27T07:51:31.397Z,85.80
2023-02-27T07:56:27.117Z,79.30
2023-02-27T08:01:21.527Z,81.20
2023-02-27T08:03:48.353Z,79.20
2023-02-27T08:06:15.217Z,77.50
2023-02-27T08:21:18.418Z,67.20
2023-02-27T08:45:53.224Z,61.40
2023-02-27T08:55:42.798Z,63.50
2023-02-27T08:58:10.329Z,60.10
2023-02-27T09:05:35.316Z,63.20
2023-02-27T09:08:02.809Z,60.20
2023-02-27T09:15:24.406Z,67.50
2023-02-27T09:22:45.929Z,72.50
2023-02-27T09:30:08.252Z,77.50
2023-02-27T09:35:02.688Z,72.90
2023-02-27T09:37:29.521Z,73.70
2023-02-27T09:39:56.352Z,75.00
2023-02-27T09:42:28.096Z,67.00
2023-02-27T09:45:05.490Z,68.30
2023-02-27T09:47:48.111Z,65.60
2023-02-27T09:50:27.137Z,74.70
2023-02-27T09:52:54.373Z,75.10
2023-02-27T09:55:22.879Z,69.60
2023-02-27T09:58:10.493Z,68.00
2023-02-27T10:00:48.719Z,67.40
2023-02-27T10:03:24.609Z,76.20
2023-02-27T10:06:13.525Z,65.10
2023-02-27T10:08:58.984Z,64.00
2023-02-27T10:11:44.235Z,73.10
2023-02-27T10:14:50.852Z,65.80
2023-02-27T10:17:31.539Z,64.70
2023-02-27T10:20:04.766Z,65.40
2023-02-27T10:22:36.216Z,72.30
2023-02-27T10:25:29.922Z,63.40
2023-02-27T10:28:08.961Z,71.70
2023-02-27T10:30:36.267Z,65.80
2023-02-27T10:33:15.266Z,66.10
2023-02-27T10:35:45.110Z,64.20
2023-02-27T10:38:26.663Z,70.70
2023-02-27T10:40:56.509Z,63.60
2023-02-27T10:48:18.677Z,66.80
2023-02-27T10:50:53.223Z,71.60
2023-02-27T10:53:28.288Z,67.30
2023-02-27T10:56:06.170Z,68.60
2023-02-27T10:58:36.282Z,78.40
2023-02-27T11:01:07.088Z,76.10
2023-02-27T11:03:39.925Z,70.00
2023-02-27T11:06:24.846Z,71.50
2023-02-27T11:09:13.567Z,74.50
2023-02-27T11:14:30.970Z,77.40
2023-02-27T11:17:00.395Z,68.90
2023-02-27T11:19:33.892Z,71.70
2023-02-27T11:24:29.107Z,74.10
2023-02-27T11:27:05.418Z,69.20
2023-02-27T11:29:34.375Z,70.10
2023-02-27T11:32:13.443Z,78.50
2023-02-27T11:34:47.746Z,68.60
2023-02-27T11:37:33.000Z,71.90
2023-02-27T11:40:13.355Z,68.80
2023-02-27T11:42:50.939Z,70.70
2023-02-27T11:46:13.272Z,76.70
2023-02-27T11:48:18.652Z,68.60
2023-02-27T11:51:10.663Z,69.00
2023-02-27T11:54:05.115Z,69.10
2023-02-27T11:56:39.798Z,67.80
2023-02-27T11:59:32.137Z,69.50
2023-02-27T12:02:14.394Z,65.90
2023-02-27T12:05:06.714Z,73.50
2023-02-27T12:07:54.206Z,64.00
2023-02-27T12:10:29.033Z,62.70
2023-02-27T12:15:45.078Z,61.30
2023-02-27T12:20:45.788Z,62.80
2023-02-27T12:23:26.114Z,52.50
2023-02-27T12:26:01.772Z,52.60
2023-02-27T12:28:43.864Z,53.80
2023-02-27T12:34:01.062Z,67.70
2023-02-27T12:38:55.336Z,71.50
2023-02-27T12:41:36.693Z,64.10
2023-02-27T12:44:42.463Z,64.80
2023-02-27T12:50:03.569Z,75.60
2023-02-27T12:52:33.827Z,67.20
2023-02-27T12:55:10.215Z,74.60
2023-02-27T12:58:12.085Z,67.00
2023-02-27T13:01:00.151Z,66.20
2023-02-27T13:03:44.997Z,77.10
2023-02-27T13:06:20.358Z,68.50
2023-02-27T13:09:09.534Z,70.20
2023-02-27T13:12:01.810Z,78.10
2023-02-27T13:14:46.125Z,67.60
2023-02-27T13:17:33.997Z,67.10
2023-02-27T13:20:16.863Z,69.00
2023-02-27T13:23:13.224Z,69.00
2023-02-27T13:25:42.212Z,67.70
2023-02-27T13:28:15.215Z,69.10
2023-02-27T13:30:52.940Z,69.60
2023-02-27T13:33:33.295Z,79.60
2023-02-27T13:36:14.839Z,70.20
2023-02-27T13:38:50.536Z,74.90
2023-02-27T13:41:20.476Z,68.80
2023-02-27T13:43:52.373Z,77.60
2023-02-27T13:46:23.995Z,72.00
2023-02-27T13:48:53.875Z,67.80
2023-02-27T13:51:36.279Z,71.40
2023-02-27T13:54:15.426Z,69.00
2023-02-27T13:56:51.327Z,69.00
2023-02-27T13:59:31.994Z,80.80
2023-02-27T14:02:03.700Z,73.20
2023-02-27T14:04:36.380Z,80.90
2023-02-27T14:07:11.294Z,71.60
2023-02-27T14:09:41.556Z,79.00
2023-02-27T14:12:42.608Z,68.60
2023-02-27T14:15:35.960Z,79.10
2023-02-27T14:18:14.227Z,66.80
2023-02-27T14:23:21.260Z,70.00
2023-02-27T14:25:55.586Z,81.40
2023-02-27T14:28:48.316Z,72.10
2023-02-27T14:31:28.438Z,81.90
2023-02-27T14:33:58.928Z,70.10
2023-02-27T14:36:29.526Z,69.90
2023-02-27T14:39:01.386Z,70.10
2023-02-27T14:42:05.442Z,70.00
2023-02-27T14:44:43.682Z,68.70
2023-02-27T14:47:35.872Z,79.30
2023-02-27T14:50:05.707Z,68.80
2023-02-27T14:52:41.609Z,69.00
2023-02-27T14:55:27.893Z,80.00
2023-02-27T15:00:52.568Z,70.20
2023-02-27T15:03:29.333Z,79.30
2023-02-27T15:06:02.350Z,70.90
2023-02-27T15:08:38.061Z,77.80
2023-02-27T15:13:39.207Z,69.60
2023-02-27T15:16:42.762Z,71.10
2023-02-27T15:19:15.286Z,80.50
2023-02-27T15:21:50.166Z,69.00
2023-02-27T15:24:24.470Z,70.50
2023-02-27T15:26:57.050Z,81.30
2023-02-27T15:29:29.974Z,71.30
2023-02-27T15:34:24.216Z,81.40
2023-02-27T15:36:54.580Z,69.10
2023-02-27T15:39:26.639Z,71.80
2023-02-27T15:42:01.092Z,81.90
2023-02-27T15:44:35.291Z,82.10
2023-02-27T15:52:13.506Z,76.10
2023-02-27T15:54:46.427Z,71.70
2023-02-27T15:57:14.304Z,70.50
2023-02-27T15:59:43.163Z,69.90
2023-02-27T16:02:30.037Z,73.50
2023-02-27T16:07:26.082Z,71.70
2023-02-27T16:10:00.860Z,73.30
2023-02-27T16:12:37.044Z,83.00
2023-02-27T16:15:23.069Z,73.70
2023-02-27T16:18:07.995Z,73.20
2023-02-27T16:20:42.070Z,72.80
2023-02-27T16:23:28.397Z,72.10
2023-02-27T16:26:02.998Z,73.30
2023-02-27T16:28:39.954Z,71.60
2023-02-27T16:31:23.937Z,72.60
2023-02-27T16:33:51.983Z,71.70
2023-02-27T16:36:24.786Z,71.60
2023-02-27T16:41:20.505Z,83.20
2023-02-27T16:43:48.394Z,76.80
2023-02-27T16:46:20.379Z,73.10
2023-02-27T16:48:51.075Z,73.40
2023-02-27T16:51:23.350Z,73.80
2023-02-27T16:53:54.265Z,73.00
2023-02-27T16:56:35.783Z,73.80
2023-02-27T16:59:04.374Z,83.10
2023-02-27T17:06:28.993Z,82.70
2023-02-27T17:13:52.397Z,82.80
2023-02-27T17:21:13.712Z,82.80
2023-02-27T17:26:07.877Z,84.50
2023-02-27T17:33:31.382Z,73.30
2023-02-27T17:36:08.585Z,73.80
2023-02-27T17:38:36.363Z,80.00
2023-02-27T17:41:10.868Z,84.50
2023-02-27T17:43:38.326Z,73.20
2023-02-27T17:46:09.370Z,73.30
2023-02-27T17:48:38.283Z,73.10
2023-02-27T17:51:07.062Z,83.20
2023-02-27T17:53:35.440Z,74.60
2023-02-27T17:58:29.861Z,74.10
2023-02-27T18:01:04.721Z,73.40
2023-02-27T18:10:55.022Z,87.40
2023-02-27T18:15:50.819Z,84.80
2023-02-27T18:18:18.569Z,83.00
2023-02-27T18:23:14.191Z,74.70
2023-02-27T18:25:41.074Z,77.70
2023-02-27T18:30:38.324Z,86.70
2023-02-27T18:42:57.420Z,84.30
2023-02-27T18:45:24.754Z,80.40
2023-02-27T18:50:20.041Z,77.20
2023-02-27T18:52:47.384Z,84.50
2023-02-27T18:55:15.232Z,74.30
2023-02-27T19:00:10.120Z,79.70
2023-02-27T19:05:11.158Z,74.20
2023-02-27T19:07:38.989Z,86.20
2023-02-27T19:10:07.854Z,85.90
2023-02-27T19:15:02.454Z,84.50
2023-02-27T19:19:56.732Z,85.60
2023-02-27T19:24:59.289Z,74.50
2023-02-27T19:27:26.149Z,85.70
2023-02-27T19:32:21.449Z,85.20
2023-02-27T19:34:48.426Z,85.20
2023-02-27T19:42:11.523Z,75.90
2023-02-27T19:49:34.909Z,80.90
2023-02-27T19:56:57.533Z,78.40
2023-02-27T19:59:24.790Z,87.10
2023-02-27T20:01:52.364Z,87.70
2023-02-27T20:06:47.853Z,77.00
2023-02-27T20:09:17.289Z,76.60
2023-02-27T20:11:45.650Z,75.90
2023-02-27T20:14:14.182Z,87.30
2023-02-27T20:16:41.962Z,84.40
2023-02-27T20:19:13.716Z,90.20
2023-02-27T20:26:40.242Z,81.30
2023-02-27T20:29:11.685Z,78.00
2023-02-27T20:31:40.498Z,90.80
2023-02-27T20:34:11.026Z,78.60
2023-02-27T20:36:39.576Z,89.30
2023-02-27T20:39:07.392Z,78.10
2023-02-27T20:41:35.375Z,77.40
2023-02-27T20:46:30.551Z,88.20
2023-02-27T20:49:02.887Z,77.00
2023-02-27T20:51:35.222Z,77.90
2023-02-27T20:54:07.824Z,77.20
2023-02-27T20:56:38.354Z,77.90
2023-02-27T20:59:07.220Z,77.30
2023-02-27T21:01:36.246Z,77.60
2023-02-27T21:09:01.486Z,90.40
2023-02-27T21:11:30.717Z,86.20
2023-02-27T21:14:00.027Z,78.90
2023-02-27T21:18:56.826Z,78.80
2023-02-27T21:21:29.831Z,77.90
2023-02-27T21:23:57.653Z,77.20
2023-02-27T21:29:14.065Z,75.70
2023-02-27T21:31:42.271Z,77.70
2023-02-27T21:34:13.564Z,76.10
2023-02-27T21:36:42.802Z,75.30
2023-02-27T21:39:13.923Z,87.60
2023-02-27T21:41:41.429Z,76.70
2023-02-27T21:44:09.927Z,88.30
2023-02-27T21:49:04.393Z,81.30
2023-02-27T21:51:40.053Z,77.70
2023-02-27T21:54:09.546Z,75.10
2023-02-27T21:56:36.809Z,78.10
2023-02-27T22:06:32.342Z,75.80
2023-02-27T22:09:01.908Z,76.70
2023-02-27T22:11:31.189Z,77.40
2023-02-27T22:21:24.175Z,77.40
2023-02-27T22:26:22.139Z,75.70
2023-02-27T22:31:24.899Z,76.70
2023-02-27T22:33:54.249Z,75.00
2023-02-27T22:36:26.341Z,79.20
2023-02-27T22:41:31.298Z,76.10
2023-02-27T22:43:59.875Z,75.90
2023-02-27T22:46:36.341Z,76.90
2023-02-27T22:49:23.489Z,77.50
2023-02-27T22:51:52.057Z,75.90
2023-02-27T22:54:21.315Z,75.50
2023-02-27T22:56:51.062Z,80.20
2023-02-27T23:01:46.017Z,77.60
2023-02-27T23:06:40.899Z,76.80
2023-02-27T23:09:12.466Z,76.60
2023-02-27T23:14:07.026Z,80.60
2023-02-27T23:16:34.343Z,80.10
2023-02-27T23:21:34.823Z,76.90
2023-02-27T23:24:08.472Z,77.40
2023-02-27T23:26:37.941Z,76.90
2023-02-27T23:29:05.996Z,78.00
2023-02-27T23:31:35.304Z,81.40
2023-02-27T23:34:05.827Z,78.10
2023-02-27T23:36:37.492Z,79.30
2023-02-27T23:39:05.986Z,81.40
2023-02-27T23:41:33.176Z,80.00
2023-02-27T23:46:46.502Z,84.50
2023-02-27T23:56:35.571Z,84.10
2023-02-27T23:59:05.846Z,80.50
